Time;durP1;ratioP1;P1;durP2;ratioP2;P2;SDS_P1;SDS_P2;PMS_P1;PMS_P2;Temp;Humidity;BMP_temperature;BMP_pressure;BME280_temperature;BME280_humidity;BME280_pressure;Samples;Min_cycle;Max_cycle;Signal;HPM_P1;HPM_P2
2021/10/14 00:01:53;;;;;;;9.10;6.93;;;12.20;99.90;;;;;;5065016;28;20098;-66
2021/10/14 00:04:18;;;;;;;7.93;6.60;;;12.20;99.90;;;;;;5067119;28;20474;-66
2021/10/14 00:06:45;;;;;;;8.80;6.45;;;12.20;99.90;;;;;;5062206;28;20044;-66
2021/10/14 00:09:14;;;;;;;11.18;7.80;;;12.30;99.90;;;;;;5070236;28;20049;-66
2021/10/14 00:11:40;;;;;;;9.07;7.45;;;12.20;99.90;;;;;;5068768;28;20387;-67
2021/10/14 00:14:06;;;;;;;8.85;7.63;;;12.20;99.90;;;;;;5065521;28;20040;-66
2021/10/14 00:16:32;;;;;;;10.43;7.43;;;12.20;99.90;;;;;;5062642;28;20456;-66
2021/10/14 00:18:59;;;;;;;9.32;6.93;;;12.20;99.90;;;;;;5065322;28;20041;-67
2021/10/14 00:21:25;;;;;;;11.63;6.88;;;12.20;99.90;;;;;;5060986;28;20051;-66
2021/10/14 00:23:50;;;;;;;8.25;6.53;;;12.20;99.90;;;;;;5069215;28;20363;-66
2021/10/14 00:26:16;;;;;;;13.52;7.90;;;12.20;99.90;;;;;;5067380;28;20036;-66
2021/10/14 00:28:42;;;;;;;8.15;5.88;;;12.20;99.90;;;;;;5061110;28;20460;-66
2021/10/14 00:31:07;;;;;;;10.15;7.85;;;12.20;99.90;;;;;;5067901;28;20055;-66
2021/10/14 00:33:33;;;;;;;8.57;7.70;;;12.20;99.90;;;;;;5066680;28;20040;-66
2021/10/14 00:35:58;;;;;;;10.85;7.50;;;12.20;99.90;;;;;;5051774;28;20048;-67
2021/10/14 00:38:24;;;;;;;10.60;8.50;;;12.20;99.90;;;;;;5053958;28;20049;-66
2021/10/14 00:40:49;;;;;;;9.20;6.88;;;12.20;99.90;;;;;;5070789;28;20059;-67
2021/10/14 00:43:15;;;;;;;9.93;7.22;;;12.20;99.90;;;;;;5060694;28;20079;-67
2021/10/14 00:45:40;;;;;;;13.13;8.73;;;12.20;99.90;;;;;;5058958;28;20403;-66
2021/10/14 00:48:06;;;;;;;12.13;8.18;;;12.20;99.90;;;;;;5053176;28;20044;-64
2021/10/14 00:50:32;;;;;;;12.82;8.15;;;12.20;99.90;;;;;;5054390;28;20151;-64
2021/10/14 00:52:57;;;;;;;10.73;7.93;;;12.20;99.90;;;;;;5054310;28;20045;-65
2021/10/14 00:55:23;;;;;;;14.13;9.95;;;12.20;99.90;;;;;;5055417;28;20059;-64
2021/10/14 00:57:49;;;;;;;13.88;9.07;;;12.20;99.90;;;;;;5055290;28;20037;-64
2021/10/14 01:00:15;;;;;;;15.13;10.05;;;12.10;99.90;;;;;;5061885;28;20111;-65
2021/10/14 01:02:42;;;;;;;18.98;10.05;;;12.10;99.90;;;;;;5071303;28;20110;-65
2021/10/14 01:05:08;;;;;;;12.15;8.63;;;12.10;99.90;;;;;;5073700;28;20040;-65
2021/10/14 01:07:34;;;;;;;14.50;9.75;;;12.00;99.90;;;;;;5073804;28;20036;-64
2021/10/14 01:10:00;;;;;;;12.23;9.10;;;12.00;99.90;;;;;;5067090;28;20838;-65
2021/10/14 01:12:27;;;;;;;13.60;8.35;;;12.00;99.90;;;;;;5068394;28;20036;-65
2021/10/14 01:14:52;;;;;;;13.73;8.68;;;12.00;99.90;;;;;;5067197;28;20039;-65
2021/10/14 01:17:18;;;;;;;10.10;7.18;;;12.00;99.90;;;;;;5067056;28;20032;-65
2021/10/14 01:19:44;;;;;;;10.90;7.35;;;12.00;99.90;;;;;;5072775;28;20048;-65
2021/10/14 01:22:10;;;;;;;10.82;6.88;;;12.00;99.90;;;;;;5056226;28;20116;-64
2021/10/14 01:24:36;;;;;;;11.90;7.63;;;11.90;99.90;;;;;;5060874;28;20124;-64
2021/10/14 01:27:07;;;;;;;11.38;7.13;;;11.80;99.90;;;;;;5069810;28;20525;-64
2021/10/14 01:29:33;;;;;;;14.25;6.90;;;11.80;99.90;;;;;;5069699;28;20854;-65
2021/10/14 01:32:02;;;;;;;11.32;6.47;;;11.70;99.90;;;;;;5061083;28;20049;-65
2021/10/14 01:34:28;;;;;;;8.65;5.85;;;11.70;99.90;;;;;;5059348;28;20053;-64
2021/10/14 01:36:54;;;;;;;11.85;5.85;;;11.60;99.90;;;;;;5068374;28;20055;-65
2021/10/14 01:39:19;;;;;;;12.63;6.40;;;11.60;99.90;;;;;;5069147;28;20057;-65
2021/10/14 01:41:47;;;;;;;10.85;6.40;;;11.60;99.90;;;;;;5065471;28;20036;-64
2021/10/14 01:44:14;;;;;;;9.70;5.18;;;11.60;99.90;;;;;;5058607;28;20044;-64
2021/10/14 01:46:39;;;;;;;14.23;5.82;;;11.50;99.90;;;;;;5068101;28;20044;-64
2021/10/14 01:49:06;;;;;;;10.65;6.38;;;11.50;99.90;;;;;;5070040;28;20531;-65
2021/10/14 01:51:32;;;;;;;14.13;6.90;;;11.50;99.90;;;;;;5069199;28;20040;-65
2021/10/14 01:53:57;;;;;;;11.95;6.95;;;11.50;99.90;;;;;;5070776;28;20055;-65
2021/10/14 01:56:23;;;;;;;16.58;7.13;;;11.50;99.90;;;;;;5071423;28;20039;-64
2021/10/14 01:58:48;;;;;;;12.15;6.88;;;11.60;99.90;;;;;;5062153;28;20043;-64
2021/10/14 02:01:14;;;;;;;9.48;6.53;;;11.50;99.90;;;;;;5057599;28;20032;-64
2021/10/14 02:03:39;;;;;;;10.82;6.43;;;11.60;99.90;;;;;;5070242;28;20059;-64
2021/10/14 02:06:05;;;;;;;10.07;5.57;;;11.60;99.90;;;;;;5068930;28;20036;-65
2021/10/14 02:08:30;;;;;;;12.35;6.32;;;11.60;99.90;;;;;;5066826;28;20024;-64
2021/10/14 02:10:56;;;;;;;12.02;5.68;;;11.70;99.90;;;;;;5071674;28;20059;-64
2021/10/14 02:13:21;;;;;;;15.43;5.13;;;11.70;99.90;;;;;;5070979;28;20045;-64
2021/10/14 02:15:47;;;;;;;15.32;6.00;;;11.70;99.90;;;;;;5068602;28;20075;-65
2021/10/14 02:18:12;;;;;;;7.90;4.82;;;11.70;99.90;;;;;;5070624;28;20075;-64
2021/10/14 02:20:38;;;;;;;11.10;5.18;;;11.80;99.90;;;;;;5069121;28;20102;-64
2021/10/14 02:23:04;;;;;;;9.82;5.25;;;11.80;99.90;;;;;;5069635;28;20037;-64
2021/10/14 02:25:30;;;;;;;9.30;4.80;;;11.90;99.90;;;;;;5057565;28;20047;-65
2021/10/14 02:27:55;;;;;;;9.88;4.95;;;11.90;99.90;;;;;;5067353;28;20052;-64
2021/10/14 02:30:21;;;;;;;11.30;5.30;;;11.90;99.90;;;;;;5068634;28;20694;-64
2021/10/14 02:32:46;;;;;;;8.00;4.43;;;12.00;99.90;;;;;;5069660;28;20481;-65
2021/10/14 02:35:12;;;;;;;12.63;4.43;;;11.90;99.90;;;;;;5065770;28;20044;-65
2021/10/14 02:37:39;;;;;;;10.77;4.85;;;11.90;99.90;;;;;;5065432;28;20152;-65
2021/10/14 02:40:05;;;;;;;5.85;4.55;;;12.00;99.90;;;;;;5062084;28;20044;-65
2021/10/14 02:42:32;;;;;;;9.70;4.85;;;12.00;99.90;;;;;;5067884;28;20504;-65
2021/10/14 02:44:57;;;;;;;9.13;4.95;;;12.00;99.90;;;;;;5070292;28;20048;-65
2021/10/14 02:47:23;;;;;;;11.55;5.35;;;12.00;99.90;;;;;;5070818;28;20047;-65
2021/10/14 02:49:49;;;;;;;7.82;5.00;;;12.00;99.90;;;;;;5069170;28;20069;-65
2021/10/14 02:52:14;;;;;;;9.35;5.43;;;11.90;99.90;;;;;;5070375;28;20041;-65
2021/10/14 02:54:40;;;;;;;11.07;4.82;;;11.90;99.90;;;;;;5068647;28;20064;-64
2021/10/14 02:57:05;;;;;;;9.35;5.75;;;11.90;99.90;;;;;;5070325;28;20067;-64
2021/10/14 02:59:31;;;;;;;9.40;4.63;;;11.90;99.90;;;;;;5069027;28;20048;-65
2021/10/14 03:01:56;;;;;;;10.18;5.43;;;11.90;99.90;;;;;;5070092;28;20039;-65
2021/10/14 03:04:22;;;;;;;7.95;5.07;;;12.00;99.90;;;;;;5066843;28;20047;-65
2021/10/14 03:06:48;;;;;;;11.25;5.90;;;11.90;99.90;;;;;;5069963;28;20033;-65
2021/10/14 03:09:14;;;;;;;8.55;4.90;;;11.90;99.90;;;;;;5067579;28;20036;-64
2021/10/14 03:11:39;;;;;;;10.27;4.72;;;11.90;99.90;;;;;;5065401;28;20041;-64
2021/10/14 03:14:05;;;;;;;6.65;5.22;;;11.90;99.90;;;;;;5038182;28;20143;-65
2021/10/14 03:16:30;;;;;;;7.18;4.32;;;11.90;99.90;;;;;;5067531;28;20410;-65
2021/10/14 03:18:56;;;;;;;10.70;6.00;;;11.90;99.90;;;;;;5069820;28;20072;-64
2021/10/14 03:21:22;;;;;;;13.10;6.78;;;11.90;99.90;;;;;;5067898;28;20075;-65
2021/10/14 03:23:48;;;;;;;12.20;7.35;;;11.90;99.90;;;;;;5068207;28;20040;-65
2021/10/14 03:26:14;;;;;;;10.43;7.63;;;11.90;99.90;;;;;;5070468;28;20032;-65
2021/10/14 03:28:40;;;;;;;10.27;6.90;;;11.90;99.90;;;;;;5059930;28;20041;-65
2021/10/14 03:31:05;;;;;;;11.48;6.68;;;11.90;99.90;;;;;;5052051;28;20441;-65
2021/10/14 03:33:31;;;;;;;9.70;5.90;;;11.90;99.90;;;;;;5052384;28;20040;-65
2021/10/14 03:35:56;;;;;;;9.13;6.07;;;11.90;99.90;;;;;;5049920;28;20044;-64
2021/10/14 03:38:22;;;;;;;9.40;5.93;;;11.90;99.90;;;;;;5055049;28;20044;-65
2021/10/14 03:40:48;;;;;;;7.78;5.57;;;11.90;99.90;;;;;;5057770;28;20087;-65
2021/10/14 03:43:14;;;;;;;9.38;5.72;;;11.90;99.90;;;;;;5058100;28;20079;-65
2021/10/14 03:45:39;;;;;;;9.20;5.80;;;11.90;99.90;;;;;;5070385;28;20041;-65
2021/10/14 03:48:05;;;;;;;11.80;6.05;;;11.90;99.90;;;;;;5070941;28;20051;-65
2021/10/14 03:50:31;;;;;;;10.68;5.07;;;11.90;99.90;;;;;;5067240;28;20043;-65
2021/10/14 03:52:56;;;;;;;7.07;5.30;;;11.90;99.90;;;;;;5069563;28;20765;-65
2021/10/14 03:55:22;;;;;;;8.50;6.35;;;11.90;99.90;;;;;;5059897;28;20483;-65
2021/10/14 03:57:47;;;;;;;8.52;6.00;;;11.90;99.90;;;;;;5065217;28;20688;-65
2021/10/14 04:00:13;;;;;;;10.05;7.18;;;11.90;99.90;;;;;;5053268;28;20386;-65
2021/10/14 04:02:39;;;;;;;11.73;6.93;;;11.90;99.90;;;;;;5071063;28;20567;-65
2021/10/14 04:05:05;;;;;;;8.65;6.25;;;11.90;99.90;;;;;;5065092;28;20493;-65
2021/10/14 04:07:31;;;;;;;9.48;6.63;;;11.90;99.90;;;;;;5052809;28;20037;-65
2021/10/14 04:09:56;;;;;;;8.98;5.95;;;11.90;99.90;;;;;;5054557;28;20047;-65
2021/10/14 04:12:22;;;;;;;8.60;5.55;;;11.90;99.90;;;;;;5059341;28;20090;-65
2021/10/14 04:14:48;;;;;;;7.70;5.30;;;11.90;99.90;;;;;;5070343;28;20029;-65
2021/10/14 04:17:13;;;;;;;8.93;5.18;;;11.90;99.90;;;;;;5051945;28;20095;-64
2021/10/14 04:19:39;;;;;;;9.43;4.95;;;11.90;99.90;;;;;;5064919;28;20036;-65
2021/10/14 04:22:05;;;;;;;10.25;5.57;;;11.90;99.90;;;;;;5070383;28;20047;-66
2021/10/14 04:24:32;;;;;;;8.98;4.78;;;11.90;99.90;;;;;;5067399;28;20123;-65
2021/10/14 04:26:57;;;;;;;6.63;4.88;;;11.90;99.90;;;;;;5063241;28;20058;-68
2021/10/14 04:29:23;;;;;;;7.45;5.15;;;11.90;99.90;;;;;;5068967;28;20040;-67
2021/10/14 04:31:49;;;;;;;9.40;5.32;;;12.00;99.90;;;;;;5069376;28;20106;-65
2021/10/14 04:34:16;;;;;;;8.40;5.63;;;12.00;99.90;;;;;;5058213;28;20040;-64
2021/10/14 04:36:42;;;;;;;7.03;5.57;;;12.00;99.90;;;;;;5073840;28;20058;-64
2021/10/14 04:39:08;;;;;;;9.90;5.85;;;12.00;99.90;;;;;;5073438;28;20119;-64
2021/10/14 04:41:34;;;;;;;7.97;5.68;;;12.00;99.90;;;;;;5072534;28;20040;-66
2021/10/14 04:44:00;;;;;;;9.82;6.57;;;12.00;99.90;;;;;;5073321;28;20037;-67
2021/10/14 04:46:25;;;;;;;10.65;6.13;;;12.00;99.90;;;;;;5071042;28;20043;-67
2021/10/14 04:48:51;;;;;;;7.38;5.90;;;12.00;99.90;;;;;;5050627;28;20454;-67
2021/10/14 04:51:17;;;;;;;7.03;5.68;;;12.10;99.90;;;;;;5071265;28;20673;-66
2021/10/14 04:53:42;;;;;;;11.98;7.35;;;12.10;99.90;;;;;;5063368;28;20115;-66
2021/10/14 04:56:08;;;;;;;9.77;6.95;;;12.10;99.90;;;;;;5053728;28;20048;-67
2021/10/14 04:58:34;;;;;;;11.82;7.70;;;12.10;99.90;;;;;;5065575;28;20178;-67
2021/10/14 05:00:59;;;;;;;11.95;7.53;;;12.10;99.90;;;;;;5073789;28;20397;-67
2021/10/14 05:03:25;;;;;;;13.88;7.88;;;12.10;99.90;;;;;;5072157;28;20048;-67
2021/10/14 05:05:50;;;;;;;11.27;8.25;;;12.10;99.90;;;;;;5047320;28;20029;-67
2021/10/14 05:08:16;;;;;;;15.13;8.13;;;12.10;99.90;;;;;;5070606;28;20060;-66
2021/10/14 05:10:42;;;;;;;11.25;8.10;;;12.10;99.90;;;;;;5073637;28;20127;-67
2021/10/14 05:13:08;;;;;;;14.32;8.32;;;12.10;99.90;;;;;;5073563;28;20048;-67
2021/10/14 05:15:34;;;;;;;13.68;8.05;;;12.10;99.90;;;;;;5071419;28;20055;-67
2021/10/14 05:18:00;;;;;;;9.50;7.88;;;12.00;99.90;;;;;;5071912;28;20091;-66
2021/10/14 05:20:26;;;;;;;10.13;7.85;;;12.10;99.90;;;;;;5072278;28;20084;-66
2021/10/14 05:22:51;;;;;;;11.05;8.85;;;12.10;99.90;;;;;;5067027;28;20041;-66
2021/10/14 05:25:17;;;;;;;13.02;8.60;;;12.10;99.90;;;;;;5064526;28;20449;-66
2021/10/14 05:27:42;;;;;;;13.35;7.80;;;12.10;99.90;;;;;;5073262;28;20113;-67
2021/10/14 05:30:09;;;;;;;13.05;9.02;;;12.10;99.90;;;;;;5071642;28;20044;-67
2021/10/14 05:32:34;;;;;;;14.52;8.75;;;12.20;99.90;;;;;;5052976;28;20072;-65
2021/10/14 05:35:00;;;;;;;13.43;8.82;;;12.20;99.90;;;;;;5052594;28;20044;-64
2021/10/14 05:37:29;;;;;;;11.77;8.48;;;12.20;99.90;;;;;;5051531;28;20499;-64
2021/10/14 05:39:55;;;;;;;16.40;9.27;;;12.10;99.90;;;;;;5068107;28;20049;-65
2021/10/14 05:42:21;;;;;;;15.90;9.10;;;12.20;99.90;;;;;;5068815;28;20055;-65
2021/10/14 05:44:47;;;;;;;17.65;10.02;;;12.10;99.90;;;;;;5071751;28;20044;-65
2021/10/14 05:47:12;;;;;;;15.30;9.23;;;12.10;99.90;;;;;;5065504;28;20075;-65
2021/10/14 05:49:38;;;;;;;15.55;9.40;;;12.20;99.90;;;;;;5063884;28;20087;-65
2021/10/14 05:52:04;;;;;;;17.65;10.48;;;12.20;99.90;;;;;;5065116;28;20163;-65
2021/10/14 05:54:30;;;;;;;16.88;9.18;;;12.20;99.90;;;;;;5062649;28;20045;-65
2021/10/14 05:56:56;;;;;;;14.95;10.45;;;12.20;99.90;;;;;;5068413;28;20051;-64
2021/10/14 05:59:21;;;;;;;12.63;9.60;;;12.20;99.90;;;;;;5070603;28;20428;-64
2021/10/14 06:01:47;;;;;;;15.88;10.18;;;12.20;99.90;;;;;;5068552;28;20081;-65
2021/10/14 06:04:12;;;;;;;14.15;10.25;;;12.20;99.90;;;;;;5062139;28;20048;-65
2021/10/14 06:06:38;;;;;;;16.58;10.73;;;12.20;99.90;;;;;;5067267;28;20045;-65
2021/10/14 06:09:03;;;;;;;12.93;9.68;;;12.20;99.90;;;;;;5067054;28;20032;-64
2021/10/14 06:11:29;;;;;;;17.00;11.00;;;12.30;99.90;;;;;;5068825;28;20033;-65
2021/10/14 06:13:54;;;;;;;19.85;11.40;;;12.30;99.90;;;;;;5072685;28;20047;-65
2021/10/14 06:16:20;;;;;;;16.63;10.75;;;12.30;99.90;;;;;;5069734;28;20109;-65
2021/10/14 06:18:45;;;;;;;14.77;11.00;;;12.30;99.90;;;;;;5052789;28;20397;-65
2021/10/14 06:21:11;;;;;;;13.90;11.20;;;12.30;99.90;;;;;;5059602;28;20082;-65
2021/10/14 06:23:37;;;;;;;15.23;11.60;;;12.40;99.90;;;;;;5068924;28;20519;-64
2021/10/14 06:26:02;;;;;;;16.67;10.57;;;12.40;99.90;;;;;;5057155;28;20066;-65
2021/10/14 06:28:28;;;;;;;12.57;9.55;;;12.40;99.90;;;;;;5051904;28;20044;-65
2021/10/14 06:30:53;;;;;;;16.27;10.75;;;12.50;99.90;;;;;;5050859;28;20040;-64
2021/10/14 06:33:19;;;;;;;18.00;11.70;;;12.50;99.90;;;;;;5060058;28;20448;-65
2021/10/14 06:35:45;;;;;;;16.98;11.70;;;12.50;99.90;;;;;;5066955;28;20072;-65
2021/10/14 06:38:11;;;;;;;16.13;10.43;;;12.50;99.90;;;;;;5060152;28;20048;-65
2021/10/14 06:40:37;;;;;;;17.20;11.32;;;12.50;99.90;;;;;;5052989;28;20045;-65
2021/10/14 06:43:03;;;;;;;18.45;13.50;;;12.50;99.90;;;;;;5053448;28;20041;-64
2021/10/14 06:45:28;;;;;;;18.42;12.25;;;12.50;99.90;;;;;;5052610;28;20124;-64
2021/10/14 06:47:54;;;;;;;20.73;11.90;;;12.50;99.90;;;;;;5065610;28;20052;-65
2021/10/14 06:50:19;;;;;;;14.07;10.75;;;12.50;99.90;;;;;;5067860;28;20044;-64
2021/10/14 06:52:45;;;;;;;12.55;9.85;;;12.50;99.90;;;;;;5062550;23;20111;-64
2021/10/14 06:55:11;;;;;;;13.43;10.48;;;12.50;99.90;;;;;;5049370;28;20390;-64
2021/10/14 06:57:36;;;;;;;12.35;10.30;;;12.50;99.90;;;;;;5035670;28;20052;-64
2021/10/14 07:00:06;;;;;;;15.13;11.38;;;12.50;99.90;;;;;;5032428;28;20533;-64
2021/10/14 07:02:32;;;;;;;17.92;12.13;;;12.60;99.90;;;;;;5037137;28;20490;-64
2021/10/14 07:04:58;;;;;;;16.55;12.13;;;12.60;99.90;;;;;;5050516;28;20084;-64
2021/10/14 07:07:23;;;;;;;18.77;11.63;;;12.60;99.90;;;;;;5045140;28;20057;-64
2021/10/14 07:09:49;;;;;;;20.42;12.80;;;12.60;99.90;;;;;;5038902;28;20049;-64
2021/10/14 07:12:15;;;;;;;20.50;13.95;;;12.60;99.90;;;;;;5030435;28;20052;-64
2021/10/14 07:14:42;;;;;;;17.30;12.07;;;12.60;99.90;;;;;;5046446;28;20057;-64
2021/10/14 07:17:08;;;;;;;20.48;12.77;;;12.60;99.90;;;;;;5043993;28;20399;-65
2021/10/14 07:19:37;;;;;;;18.20;11.90;;;12.60;99.90;;;;;;5047971;28;20045;-64
2021/10/14 07:22:04;;;;;;;14.02;10.52;;;12.60;99.90;;;;;;5046874;28;20049;-64
2021/10/14 07:24:30;;;;;;;15.75;11.63;;;12.70;99.90;;;;;;5044249;28;20433;-64
2021/10/14 07:26:57;;;;;;;16.80;11.00;;;12.70;99.90;;;;;;5047561;28;20051;-64
2021/10/14 07:29:23;;;;;;;15.63;11.00;;;12.70;99.90;;;;;;5048074;28;20041;-64
2021/10/14 07:31:49;;;;;;;15.85;11.23;;;12.70;99.90;;;;;;5036983;28;20045;-64
2021/10/14 07:34:14;;;;;;;14.85;11.02;;;12.70;99.90;;;;;;5042034;28;20051;-65
2021/10/14 07:36:40;;;;;;;17.25;11.25;;;12.70;99.90;;;;;;5041102;28;20831;-65
2021/10/14 07:39:05;;;;;;;14.63;9.52;;;12.70;99.90;;;;;;5030530;28;20526;-65
2021/10/14 07:41:31;;;;;;;12.35;9.55;;;12.70;99.90;;;;;;5048771;28;20423;-64
2021/10/14 07:43:57;;;;;;;9.48;8.10;;;12.80;99.90;;;;;;5049397;28;20033;-64
2021/10/14 07:46:22;;;;;;;13.70;10.13;;;12.90;99.90;;;;;;5037199;28;20501;-65
2021/10/14 07:48:48;;;;;;;13.70;10.63;;;12.90;99.90;;;;;;5039874;28;20044;-65
2021/10/14 07:51:14;;;;;;;9.73;7.10;;;13.00;99.90;;;;;;5042371;28;20060;-64
2021/10/14 07:53:40;;;;;;;8.40;7.45;;;13.00;99.90;;;;;;5040310;28;20049;-65
2021/10/14 07:56:06;;;;;;;10.18;8.23;;;12.90;99.90;;;;;;5048656;28;20037;-64
2021/10/14 07:58:32;;;;;;;10.43;6.90;;;13.00;99.90;;;;;;5044521;28;20037;-64
2021/10/14 08:00:58;;;;;;;8.10;6.60;;;13.00;99.90;;;;;;5045207;28;20038;-64
2021/10/14 08:03:24;;;;;;;7.88;6.75;;;13.00;99.90;;;;;;5045963;28;20049;-64
2021/10/14 08:05:49;;;;;;;6.60;5.38;;;13.00;99.90;;;;;;5051737;28;20028;-64
2021/10/14 08:08:15;;;;;;;5.32;4.78;;;13.10;99.90;;;;;;5044268;28;20041;-64
2021/10/14 08:10:41;;;;;;;6.80;5.78;;;13.20;99.90;;;;;;5036466;28;20045;-64
2021/10/14 08:13:13;;;;;;;8.38;5.90;;;13.30;99.90;;;;;;5049621;28;20071;-64
2021/10/14 08:15:39;;;;;;;9.32;6.00;;;13.30;99.90;;;;;;5057313;28;20367;-64
2021/10/14 08:18:04;;;;;;;7.60;5.63;;;13.30;99.90;;;;;;5047209;28;20048;-64
2021/10/14 08:20:32;;;;;;;10.82;6.18;;;13.30;99.90;;;;;;5052300;28;20486;-64
2021/10/14 08:22:58;;;;;;;8.82;6.07;;;13.30;99.90;;;;;;5052337;28;20079;-64
2021/10/14 08:25:23;;;;;;;7.78;5.93;;;13.30;99.90;;;;;;5036413;28;20159;-64
2021/10/14 08:27:49;;;;;;;11.40;7.30;;;13.30;99.90;;;;;;5050594;28;20048;-64
2021/10/14 08:30:14;;;;;;;8.30;6.50;;;13.30;99.90;;;;;;5051423;28;20045;-64
2021/10/14 08:32:42;;;;;;;7.80;6.47;;;13.40;99.90;;;;;;5049742;28;20375;-64
2021/10/14 08:35:08;;;;;;;7.45;6.32;;;13.40;99.90;;;;;;5048597;28;20048;-64
2021/10/14 08:37:34;;;;;;;9.38;6.78;;;13.40;99.90;;;;;;5034837;28;20080;-64
2021/10/14 08:39:59;;;;;;;11.27;6.53;;;13.50;99.90;;;;;;5038384;28;20045;-64
2021/10/14 08:42:25;;;;;;;7.68;6.97;;;13.50;99.90;;;;;;5044947;28;20033;-64
2021/10/14 08:44:51;;;;;;;8.77;7.30;;;13.50;99.90;;;;;;5054635;28;20498;-64
2021/10/14 08:47:17;;;;;;;11.57;6.05;;;13.60;99.90;;;;;;5051822;28;20045;-65
2021/10/14 08:49:47;;;;;;;11.07;6.40;;;13.60;99.90;;;;;;5050968;28;20071;-65
2021/10/14 08:52:16;;;;;;;11.20;7.10;;;13.60;99.90;;;;;;5039850;28;20049;-65
2021/10/14 08:54:42;;;;;;;8.38;6.00;;;13.70;99.90;;;;;;5065325;28;20071;-65
2021/10/14 08:57:08;;;;;;;8.77;5.40;;;13.80;99.90;;;;;;5050860;28;20037;-64
2021/10/14 08:59:34;;;;;;;10.43;7.00;;;13.80;99.90;;;;;;5052463;28;20115;-65
2021/10/14 09:02:14;;;;;;;7.07;5.93;;;13.90;99.90;;;;;;5052490;28;20052;-65
2021/10/14 09:04:48;;;;;;;9.05;5.47;;;14.00;99.90;;;;;;5050303;28;20045;-65
2021/10/14 09:07:19;;;;;;;6.78;6.00;;;14.10;99.90;;;;;;5047110;28;20114;-65
2021/10/14 09:09:46;;;;;;;8.02;5.53;;;14.10;99.90;;;;;;5043982;28;20543;-65
2021/10/14 09:12:12;;;;;;;6.57;5.15;;;14.10;99.90;;;;;;5042146;28;20462;-65
2021/10/14 09:15:10;;;;;;;7.38;5.80;;;14.20;99.90;;;;;;5047823;28;20048;-65
2021/10/14 09:17:43;;;;;;;7.43;5.03;;;14.20;99.90;;;;;;5049789;28;20033;-64
2021/10/14 09:20:25;;;;;;;6.55;5.20;;;14.30;99.90;;;;;;5042596;28;20079;-64
2021/10/14 09:23:02;;;;;;;;;;;14.40;99.90;;;;;;5045157;28;20051;-64
2021/10/14 09:25:43;;;;;;;6.95;4.60;;;14.50;99.90;;;;;;5050011;28;19916;-64
2021/10/14 09:28:08;;;;;;;9.45;5.20;;;14.50;99.90;;;;;;5046080;28;20458;-64
2021/10/14 09:30:57;;;;;;;8.30;5.47;;;14.50;99.90;;;;;;5051211;28;20131;-64
2021/10/14 09:33:55;;;;;;;6.63;4.80;;;14.50;99.90;;;;;;5046717;28;20041;-64
2021/10/14 09:36:22;;;;;;;7.13;5.10;;;14.50;99.90;;;;;;5044294;28;20466;-64
2021/10/14 09:38:53;;;;;;;7.05;4.72;;;14.60;99.90;;;;;;5045219;28;20048;-64
2021/10/14 09:41:22;;;;;;;6.55;5.38;;;14.60;99.90;;;;;;5058614;28;20048;-64
2021/10/14 09:43:51;;;;;;;7.35;5.13;;;14.60;99.90;;;;;;5042092;28;20062;-64
2021/10/14 09:46:44;;;;;;;6.57;5.28;;;14.60;99.90;;;;;;5049369;28;20072;-64
2021/10/14 09:49:19;;;;;;;8.15;5.50;;;14.60;99.90;;;;;;5045704;28;20478;-64
2021/10/14 09:51:45;;;;;;;9.05;5.72;;;14.50;99.90;;;;;;5050926;28;20049;-64
2021/10/14 09:54:12;;;;;;;10.98;6.38;;;14.60;99.90;;;;;;5049230;28;20056;-64
2021/10/14 09:56:38;;;;;;;7.75;5.70;;;14.60;99.90;;;;;;5049497;28;20041;-64
2021/10/14 09:59:04;;;;;;;7.03;5.82;;;14.70;99.90;;;;;;5049720;28;20094;-64
2021/10/14 10:01:40;;;;;;;10.35;6.47;;;14.70;99.90;;;;;;5050773;28;20032;-64
2021/10/14 10:04:05;;;;;;;5.82;5.32;;;14.70;99.90;;;;;;5046601;28;20482;-64
2021/10/14 10:06:33;;;;;;;8.35;5.85;;;14.80;99.90;;;;;;5048444;28;20052;-64
2021/10/14 10:09:14;;;;;;;8.40;5.90;;;14.90;99.90;;;;;;5047316;28;20513;-64
2021/10/14 10:11:42;;;;;;;7.07;6.35;;;15.00;99.90;;;;;;5048653;28;20044;-64
2021/10/14 10:14:09;;;;;;;6.88;6.07;;;15.00;99.90;;;;;;5042246;28;20041;-64
2021/10/14 10:16:34;;;;;;;6.38;5.70;;;15.00;99.90;;;;;;5034037;28;20131;-64
2021/10/14 10:19:00;;;;;;;8.95;6.38;;;15.10;99.90;;;;;;5050874;28;20550;-64
2021/10/14 10:21:32;;;;;;;6.93;6.05;;;15.10;99.90;;;;;;5049529;28;20080;-64
2021/10/14 10:24:26;;;;;;;8.30;6.45;;;15.20;99.90;;;;;;5051913;28;20041;-64
2021/10/14 10:26:53;;;;;;;7.40;6.10;;;15.20;99.90;;;;;;5046791;28;20467;-64
2021/10/14 10:29:22;;;;;;;9.88;7.40;;;15.20;99.90;;;;;;5036254;28;20042;-64
2021/10/14 10:31:53;;;;;;;7.28;6.03;;;15.20;99.90;;;;;;5041399;28;20370;-64
2021/10/14 10:34:29;;;;;;;;;;;15.30;99.90;;;;;;5044408;28;20490;-65
2021/10/14 10:36:54;;;;;;;8.65;5.78;;;15.40;99.90;;;;;;5048556;28;20293;-64
2021/10/14 10:39:47;;;;;;;9.35;5.63;;;15.40;99.90;;;;;;5029832;28;20052;-64
2021/10/14 10:42:13;;;;;;;8.20;5.30;;;15.40;99.90;;;;;;5039214;28;20033;-64
2021/10/14 10:44:46;;;;;;;7.57;5.43;;;15.50;99.90;;;;;;5045346;28;20039;-64
2021/10/14 10:47:49;;;;;;;7.13;5.00;;;15.50;99.90;;;;;;5029052;28;20037;-64
2021/10/14 10:50:21;;;;;;;6.18;4.70;;;15.50;99.90;;;;;;5036698;28;20053;-64
2021/10/14 10:52:47;;;;;;;;;;;15.40;99.90;;;;;;5032447;28;20072;-64
2021/10/14 10:55:36;;;;;;;6.20;3.85;;;15.40;99.90;;;;;;5047837;28;19928;-64
2021/10/14 10:58:03;;;;;;;5.40;3.50;;;15.40;99.90;;;;;;5040049;28;20489;-64
2021/10/14 11:00:29;;;;;;;6.05;3.60;;;15.50;99.90;;;;;;5034101;28;20037;-64
2021/10/14 11:03:12;;;;;;;5.53;3.70;;;15.60;99.90;;;;;;5020558;28;20052;-64
2021/10/14 11:05:44;;;;;;;4.18;2.90;;;15.60;99.90;;;;;;5030717;28;20090;-64
2021/10/14 11:08:12;;;;;;;6.07;3.67;;;15.70;99.90;;;;;;5033646;28;20060;-64
2021/10/14 11:10:38;;;;;;;5.07;3.40;;;15.80;99.90;;;;;;5044115;28;20486;-64
2021/10/14 11:13:03;;;;;;;4.82;3.17;;;15.90;99.90;;;;;;5044245;28;20041;-64
2021/10/14 11:15:29;;;;;;;5.05;3.00;;;15.90;99.90;;;;;;5048193;28;20064;-64
2021/10/14 11:18:06;;;;;;;8.50;3.55;;;16.00;99.90;;;;;;5048407;28;20041;-64
2021/10/14 11:20:33;;;;;;;5.65;3.00;;;16.00;99.90;;;;;;5037479;28;20041;-63
2021/10/14 11:23:07;;;;;;;8.23;2.85;;;15.90;99.90;;;;;;5041014;28;20037;-63
2021/10/14 11:25:34;;;;;;;5.10;2.70;;;15.90;99.90;;;;;;5048453;28;20036;-63
2021/10/14 11:28:06;;;;;;;4.45;2.45;;;16.00;99.90;;;;;;5042909;28;20083;-63
2021/10/14 11:30:45;;;;;;;5.82;2.70;;;16.00;99.90;;;;;;5048611;28;20124;-63
2021/10/14 11:33:29;;;;;;;5.97;2.22;;;16.00;99.90;;;;;;5045188;28;20116;-62
2021/10/14 11:36:03;;;;;;;4.60;2.30;;;16.00;99.90;;;;;;5044353;28;20075;-63
2021/10/14 11:38:29;;;;;;;4.40;2.30;;;16.20;99.90;;;;;;5048136;28;20045;-63
2021/10/14 11:40:56;;;;;;;4.70;2.00;;;16.20;99.90;;;;;;5041872;28;20048;-63
2021/10/14 11:43:27;;;;;;;4.72;2.50;;;16.20;99.90;;;;;;5034153;28;20041;-63
2021/10/14 11:45:55;;;;;;;6.63;2.47;;;16.20;99.90;;;;;;5049795;28;20048;-63
2021/10/14 11:48:29;;;;;;;4.63;3.10;;;16.10;99.90;;;;;;5046781;28;20032;-62
2021/10/14 11:51:06;;;;;;;3.78;2.38;;;16.10;99.90;;;;;;5037004;28;20394;-63
2021/10/14 11:53:33;;;;;;;7.35;2.80;;;16.10;99.90;;;;;;5048950;28;20098;-63
2021/10/14 11:56:05;;;;;;;4.30;3.15;;;16.10;99.90;;;;;;5038968;28;20056;-63
2021/10/14 11:58:32;;;;;;;3.33;2.90;;;16.20;99.90;;;;;;5034632;28;20403;-63
2021/10/14 12:01:03;;;;;;;6.07;3.20;;;16.30;99.90;;;;;;5040147;28;20059;-63
2021/10/14 12:03:31;;;;;;;5.07;3.30;;;16.20;99.90;;;;;;5046014;28;20052;-63
2021/10/14 12:05:57;;;;;;;3.50;3.10;;;16.10;99.90;;;;;;5047664;28;20053;-63
2021/10/14 12:08:23;;;;;;;7.03;3.47;;;16.20;99.90;;;;;;5047823;28;20048;-63
2021/10/14 12:10:54;;;;;;;6.80;3.67;;;16.20;99.90;;;;;;5049023;28;20095;-63
2021/10/14 12:13:30;;;;;;;5.90;3.78;;;16.00;99.90;;;;;;5047771;28;20045;-63
2021/10/14 12:16:14;;;;;;;6.35;3.80;;;16.10;99.90;;;;;;5047735;28;20045;-63
2021/10/14 12:18:40;;;;;;;4.57;3.25;;;15.90;99.90;;;;;;5043929;28;20048;-63
2021/10/14 12:21:32;;;;;;;4.45;3.80;;;15.80;99.90;;;;;;5040099;28;20045;-63
2021/10/14 12:24:06;;;;;;;;;;;15.70;99.90;;;;;;5042536;28;20039;-63
2021/10/14 12:26:36;;;;;;;4.28;3.20;;;15.80;99.90;;;;;;5049068;28;19969;-63
2021/10/14 12:29:33;;;;;;;6.10;3.72;;;16.00;99.90;;;;;;5047971;28;20037;-63
2021/10/14 12:32:20;;;;;;;7.07;3.90;;;16.20;99.90;;;;;;5039545;28;20493;-63
2021/10/14 12:34:51;;;;;;;4.63;3.70;;;16.20;99.90;;;;;;5050465;28;20049;-63
2021/10/14 12:37:23;;;;;;;4.85;3.55;;;16.30;99.90;;;;;;5047783;28;20041;-63
2021/10/14 12:40:07;;;;;;;4.93;3.30;;;16.30;99.90;;;;;;5030084;28;20510;-63
2021/10/14 12:42:50;;;;;;;5.20;3.65;;;16.50;99.90;;;;;;5040960;28;20124;-63
2021/10/14 12:45:36;;;;;;;6.88;4.20;;;16.50;99.90;;;;;;5047257;28;20035;-65